Time;durP1;ratioP1;P1;durP2;ratioP2;P2;SDS_P1;SDS_P2;PMS_P1;PMS_P2;Temp;Humidity;BMP_temperature;BMP_pressure;BME280_temperature;BME280_humidity;BME280_pressure;Samples;Min_cycle;Max_cycle;Signal;HPM_P1;HPM_P2
2021/12/24 00:01:18;;;;;;;18.00;7.63;;;;;;;;;;5007403;28;20164;-57
2021/12/24 00:03:45;;;;;;;20.98;7.93;;;;;;;;;;5003650;28;20053;-58
2021/12/24 00:06:12;;;;;;;25.73;9.13;;;;;;;;;;5007174;28;20057;-58
2021/12/24 00:08:39;;;;;;;20.77;7.65;;;;;;;;;;5003581;28;20064;-57
2021/12/24 00:11:08;;;;;;;25.38;9.18;;;;;;;;;;5007014;28;20054;-57
2021/12/24 00:13:37;;;;;;;20.23;7.97;;;;;;;;;;5004102;28;20108;-57
2021/12/24 00:16:09;;;;;;;18.45;7.25;;;;;;;;;;5005462;28;20070;-59
2021/12/24 00:18:44;;;;;;;20.13;7.95;;;;;;;;;;5003447;28;20053;-57
2021/12/24 00:35:14;;;;;;;18.65;6.63;;;;;;;;;;5003954;28;20060;-57
2021/12/24 00:37:41;;;;;;;21.50;8.57;;;;;;;;;;5007251;28;20117;-57
2021/12/24 00:40:13;;;;;;;22.60;8.23;;;;;;;;;;5003039;28;20081;-58
2021/12/24 00:42:44;;;;;;;22.38;7.20;;;;;;;;;;5006248;28;20139;-58
2021/12/24 00:45:11;;;;;;;19.30;7.80;;;;;;;;;;5004874;28;20048;-58
2021/12/24 00:47:37;;;;;;;19.30;7.40;;;;;;;;;;5007722;28;20120;-57
2021/12/24 00:50:09;;;;;;;16.48;6.65;;;;;;;;;;5000679;28;20068;-57
2021/12/24 00:52:47;;;;;;;23.80;7.40;;;;;;;;;;5006329;28;20068;-57
2021/12/24 00:55:13;;;;;;;16.05;6.47;;;;;;;;;;5002908;28;20050;-57
2021/12/24 00:57:40;;;;;;;18.88;6.45;;;;;;;;;;5024821;28;20066;-57
2021/12/24 01:00:09;;;;;;;16.63;6.50;;;;;;;;;;4988891;28;20058;-57
2021/12/24 01:02:36;;;;;;;17.15;6.68;;;;;;;;;;5006157;28;20074;-57
2021/12/24 01:05:03;;;;;;;20.92;8.57;;;;;;;;;;5001444;28;20064;-57
2021/12/24 01:07:31;;;;;;;13.98;6.38;;;;;;;;;;5007537;28;20058;-57
2021/12/24 01:09:58;;;;;;;16.27;6.10;;;;;;;;;;5004465;28;20077;-58
2021/12/24 01:12:25;;;;;;;16.00;6.95;;;;;;;;;;5005360;28;20419;-57
2021/12/24 01:14:51;;;;;;;16.85;6.75;;;;;;;;;;5006606;28;20046;-57
2021/12/24 01:17:30;;;;;;;16.52;7.47;;;;;;;;;;5002277;28;20429;-57
2021/12/24 01:20:06;;;;;;;13.45;5.88;;;;;;;;;;5006474;28;20148;-57
2021/12/24 01:25:28;;;;;;;16.80;6.00;;;;;;;;;;4989020;28;20064;-57
2021/12/24 01:28:14;;;;;;;13.93;6.53;;;;;;;;;;5002476;28;20064;-57
2021/12/24 01:39:06;;;;;;;12.38;5.03;;;;;;;;;;5005548;28;20484;-57
2021/12/24 01:44:26;;;;;;;13.10;5.75;;;;;;;;;;5005602;28;20179;-56
2021/12/24 01:46:53;;;;;;;12.65;6.00;;;;;;;;;;5001821;28;20045;-57
2021/12/24 01:49:20;;;;;;;13.57;5.10;;;;;;;;;;5005734;28;20144;-57
2021/12/24 01:51:46;;;;;;;14.23;5.00;;;;;;;;;;5002507;28;20403;-58
2021/12/24 01:54:14;;;;;;;13.57;5.82;;;;;;;;;;5004950;28;20065;-58
2021/12/24 01:56:41;;;;;;;15.23;6.68;;;;;;;;;;5006151;28;20049;-58
2021/12/24 01:59:08;;;;;;;17.00;5.93;;;;;;;;;;5002507;28;20074;-58
2021/12/24 02:01:35;;;;;;;17.38;7.40;;;;;;;;;;5005920;28;20120;-58
2021/12/24 02:04:01;;;;;;;14.80;6.60;;;;;;;;;;5000829;28;20061;-58
2021/12/24 02:06:28;;;;;;;14.30;6.60;;;;;;;;;;5005308;28;20053;-58
2021/12/24 02:08:54;;;;;;;12.40;5.63;;;;;;;;;;5002199;28;20096;-57
2021/12/24 02:11:23;;;;;;;14.18;5.30;;;;;;;;;;5007940;28;20077;-57
2021/12/24 02:13:50;;;;;;;15.02;6.35;;;;;;;;;;5001601;28;20115;-58
2021/12/24 02:16:24;;;;;;;17.45;6.93;;;;;;;;;;5039033;28;20463;-58
2021/12/24 02:29:51;;;;;;;13.05;6.85;;;;;;;;;;5001537;28;20080;-58
2021/12/24 02:32:18;;;;;;;17.05;7.50;;;;;;;;;;5005343;28;20081;-58
2021/12/24 02:34:45;;;;;;;17.40;7.57;;;;;;;;;;5001761;28;20054;-58
2021/12/24 02:37:13;;;;;;;17.10;7.15;;;;;;;;;;5005246;28;20069;-58
2021/12/24 02:39:39;;;;;;;18.38;7.75;;;;;;;;;;5001559;28;20499;-58
2021/12/24 02:42:17;;;;;;;14.85;7.03;;;;;;;;;;5037816;28;20149;-58
2021/12/24 02:44:44;;;;;;;22.30;8.27;;;;;;;;;;5001352;28;20161;-58
2021/12/24 02:47:35;;;;;;;21.63;8.07;;;;;;;;;;5005388;28;20062;-58
2021/12/24 02:55:29;;;;;;;23.33;8.63;;;;;;;;;;5000415;28;20045;-58
2021/12/24 02:57:56;;;;;;;22.80;8.48;;;;;;;;;;5003448;28;20054;-58
2021/12/24 03:00:26;;;;;;;18.90;7.85;;;;;;;;;;5002893;28;20160;-58
2021/12/24 03:02:55;;;;;;;20.88;8.65;;;;;;;;;;5005649;28;20042;-58
2021/12/24 03:05:23;;;;;;;24.23;7.40;;;;;;;;;;5001776;28;20439;-58
2021/12/24 03:07:51;;;;;;;21.30;7.78;;;;;;;;;;5006207;28;20507;-58
2021/12/24 03:10:18;;;;;;;19.13;7.70;;;;;;;;;;5003142;28;20042;-58
2021/12/24 03:12:47;;;;;;;24.60;8.40;;;;;;;;;;5005946;28;20307;-58
2021/12/24 03:15:14;;;;;;;31.10;9.60;;;;;;;;;;5005561;28;20058;-58
2021/12/24 03:17:45;;;;;;;17.58;7.40;;;;;;;;;;5008735;28;20057;-58
2021/12/24 03:20:12;;;;;;;18.63;6.35;;;;;;;;;;5005624;28;20131;-58
2021/12/24 03:22:47;;;;;;;20.85;6.55;;;;;;;;;;5008696;28;20129;-59
2021/12/24 03:25:15;;;;;;;15.05;5.78;;;;;;;;;;5007548;28;20066;-58
2021/12/24 03:27:42;;;;;;;17.85;7.53;;;;;;;;;;5027806;28;20053;-58
2021/12/24 03:30:10;;;;;;;19.25;7.60;;;;;;;;;;5028853;28;20057;-58
2021/12/24 03:32:37;;;;;;;18.35;6.68;;;;;;;;;;5007372;28;20062;-58
2021/12/24 03:35:04;;;;;;;13.38;5.53;;;;;;;;;;5009213;28;20054;-58
2021/12/24 03:37:30;;;;;;;29.52;7.78;;;;;;;;;;5005698;28;20129;-58
2021/12/24 03:39:57;;;;;;;20.95;7.25;;;;;;;;;;5010222;28;20129;-58
2021/12/24 03:42:30;;;;;;;15.30;6.25;;;;;;;;;;5006247;28;20049;-58
2021/12/24 03:45:06;;;;;;;17.05;5.32;;;;;;;;;;5010672;28;20057;-58
2021/12/24 03:47:37;;;;;;;18.75;6.18;;;;;;;;;;5005084;28;20108;-58
2021/12/24 03:50:08;;;;;;;32.72;7.05;;;;;;;;;;5008900;28;20049;-58
2021/12/24 03:53:01;;;;;;;18.38;6.70;;;;;;;;;;5005166;28;20060;-58
2021/12/24 03:55:26;;;;;;;15.55;6.18;;;;;;;;;;5008402;28;20056;-58
2021/12/24 03:57:53;;;;;;;16.33;5.35;;;;;;;;;;5005373;28;20046;-58
2021/12/24 04:00:21;;;;;;;20.33;6.67;;;;;;;;;;5008593;28;20060;-58
2021/12/24 04:02:48;;;;;;;14.95;5.63;;;;;;;;;;5004851;28;20066;-58
2021/12/24 04:05:15;;;;;;;21.52;6.05;;;;;;;;;;5008385;28;20074;-59
2021/12/24 04:07:41;;;;;;;16.33;5.57;;;;;;;;;;5003908;28;20057;-58
2021/12/24 04:10:17;;;;;;;18.85;6.05;;;;;;;;;;5008894;28;20054;-58
2021/12/24 04:12:43;;;;;;;16.05;5.55;;;;;;;;;;5004935;28;20185;-58
2021/12/24 04:15:11;;;;;;;19.13;5.07;;;;;;;;;;5008455;28;20081;-58
2021/12/24 04:17:40;;;;;;;17.15;5.82;;;;;;;;;;5004512;28;20049;-58
2021/12/24 04:25:36;;;;;;;14.30;5.75;;;;;;;;;;5008259;28;20129;-58
2021/12/24 04:28:02;;;;;;;18.83;5.20;;;;;;;;;;5004129;28;20049;-58
2021/12/24 04:30:38;;;;;;;19.05;6.65;;;;;;;;;;5008005;28;20092;-59
2021/12/24 04:33:11;;;;;;;12.55;5.47;;;;;;;;;;5004666;28;20058;-59
2021/12/24 04:35:45;;;;;;;16.58;5.50;;;;;;;;;;5008069;28;20049;-58
2021/12/24 04:52:09;;;;;;;19.38;5.45;;;;;;;;;;5007664;28;20058;-58
2021/12/24 05:02:58;;;;;;;17.48;5.43;;;;;;;;;;5020456;28;20053;-59
2021/12/24 05:05:25;;;;;;;14.90;4.47;;;;;;;;;;4995422;28;20046;-58
2021/12/24 05:10:51;;;;;;;11.13;4.40;;;;;;;;;;4954851;28;20054;-58
2021/12/24 05:13:18;;;;;;;13.70;4.88;;;;;;;;;;4950907;28;20053;-59
2021/12/24 05:15:48;;;;;;;21.52;5.35;;;;;;;;;;4970422;28;20108;-58
2021/12/24 05:18:29;;;;;;;19.35;5.93;;;;;;;;;;5007210;28;20056;-59
2021/12/24 05:23:39;;;;;;;22.55;5.40;;;;;;;;;;5007431;28;20074;-59
2021/12/24 05:26:05;;;;;;;21.50;5.18;;;;;;;;;;5008184;28;20057;-59
2021/12/24 05:28:32;;;;;;;18.73;5.63;;;;;;;;;;4987602;28;20062;-59
2021/12/24 05:30:59;;;;;;;18.45;4.93;;;;;;;;;;5024383;28;20065;-59
2021/12/24 05:33:27;;;;;;;23.17;5.38;;;;;;;;;;5006780;28;20042;-59
2021/12/24 05:35:54;;;;;;;;;;;;;;;;;;5002467;28;20060;-59
2021/12/24 05:38:20;;;;;;;14.88;4.10;;;;;;;;;;5006968;28;19979;-58
2021/12/24 05:40:47;;;;;;;11.00;4.72;;;;;;;;;;5002933;28;20080;-58
2021/12/24 05:43:13;;;;;;;21.00;5.03;;;;;;;;;;5006648;28;20140;-59
2021/12/24 05:45:40;;;;;;;11.57;4.43;;;;;;;;;;5004572;28;20060;-58
2021/12/24 05:48:07;;;;;;;20.42;4.88;;;;;;;;;;5005820;28;20064;-58
2021/12/24 05:50:36;;;;;;;18.67;4.90;;;;;;;;;;5006354;28;20062;-59
2021/12/24 05:53:03;;;;;;;12.93;4.63;;;;;;;;;;5002791;28;20232;-59
2021/12/24 05:55:29;;;;;;;25.48;7.57;;;;;;;;;;5006324;28;20141;-59
2021/12/24 05:57:56;;;;;;;24.65;6.07;;;;;;;;;;5003213;28;20074;-59
2021/12/24 06:00:22;;;;;;;15.75;5.60;;;;;;;;;;5005397;28;20495;-58
2021/12/24 06:02:49;;;;;;;11.18;4.03;;;;;;;;;;5001109;28;20141;-59
2021/12/24 06:05:16;;;;;;;10.68;4.18;;;;;;;;;;5005964;28;20073;-59
2021/12/24 06:07:44;;;;;;;14.82;4.85;;;;;;;;;;5002655;28;20083;-59
2021/12/24 06:10:11;;;;;;;20.48;3.75;;;;;;;;;;5006844;28;20073;-59
2021/12/24 06:12:37;;;;;;;22.58;4.65;;;;;;;;;;5000823;28;20096;-59
2021/12/24 06:15:06;;;;;;;13.75;3.67;;;;;;;;;;5006036;28;20111;-59
2021/12/24 06:17:36;;;;;;;16.40;3.95;;;;;;;;;;5001498;28;20068;-59
2021/12/24 06:20:03;;;;;;;16.27;3.92;;;;;;;;;;5005961;28;20065;-59
2021/12/24 06:22:29;;;;;;;10.00;3.38;;;;;;;;;;5002091;28;20050;-59
2021/12/24 06:24:57;;;;;;;16.40;3.72;;;;;;;;;;5006005;28;20054;-59
2021/12/24 06:27:24;;;;;;;11.13;3.10;;;;;;;;;;5001093;28;20085;-59
2021/12/24 06:29:51;;;;;;;24.50;3.90;;;;;;;;;;5005536;28;20128;-59
2021/12/24 06:32:18;;;;;;;22.45;5.28;;;;;;;;;;5005912;28;20054;-59
2021/12/24 06:34:44;;;;;;;17.38;4.53;;;;;;;;;;5002508;28;20049;-59
2021/12/24 06:37:11;;;;;;;11.63;3.47;;;;;;;;;;5005593;28;20062;-59
2021/12/24 06:39:37;;;;;;;12.10;3.25;;;;;;;;;;5002051;28;20065;-59
2021/12/24 06:42:06;;;;;;;12.77;3.55;;;;;;;;;;5006973;28;20053;-59
2021/12/24 06:44:33;;;;;;;;;;;;;;;;;;5002722;28;20057;-59
2021/12/24 06:47:00;;;;;;;14.52;3.42;;;;;;;;;;5004766;28;20386;-59
2021/12/24 06:49:27;;;;;;;12.90;3.53;;;;;;;;;;5004027;28;20140;-59
2021/12/24 06:51:54;;;;;;;16.27;3.45;;;;;;;;;;5009171;28;20062;-59
2021/12/24 06:54:20;;;;;;;19.17;4.78;;;;;;;;;;5006439;28;20062;-59
2021/12/24 06:56:46;;;;;;;19.88;4.63;;;;;;;;;;5007369;28;20133;-59
2021/12/24 06:59:14;;;;;;;26.50;3.78;;;;;;;;;;5006164;28;20050;-59
2021/12/24 07:01:41;;;;;;;11.00;3.47;;;;;;;;;;5008426;28;20058;-59
2021/12/24 07:04:08;;;;;;;13.85;3.22;;;;;;;;;;5004543;28;20089;-59
2021/12/24 07:06:34;;;;;;;11.13;3.47;;;;;;;;;;5008486;28;20053;-59
2021/12/24 07:09:01;;;;;;;13.13;3.28;;;;;;;;;;5005020;28;20148;-59
2021/12/24 07:11:28;;;;;;;14.70;3.15;;;;;;;;;;5008457;28;20468;-59
2021/12/24 07:13:54;;;;;;;14.20;2.60;;;;;;;;;;5008995;28;20081;-59
2021/12/24 07:16:24;;;;;;;27.27;3.85;;;;;;;;;;5004333;28;20135;-59
2021/12/24 07:18:51;;;;;;;21.02;3.53;;;;;;;;;;5008806;28;20046;-59
2021/12/24 07:21:19;;;;;;;21.25;4.57;;;;;;;;;;5005049;28;20061;-59
2021/12/24 07:23:45;;;;;;;6.13;2.57;;;;;;;;;;5008548;28;20458;-59
2021/12/24 07:26:12;;;;;;;10.75;2.95;;;;;;;;;;5003254;28;20104;-59
2021/12/24 07:28:38;;;;;;;12.00;3.33;;;;;;;;;;5008951;28;20127;-59
2021/12/24 07:31:05;;;;;;;10.18;3.42;;;;;;;;;;5005934;28;20482;-58
2021/12/24 07:33:33;;;;;;;13.38;3.00;;;;;;;;;;5009433;28;20054;-59
2021/12/24 07:35:59;;;;;;;21.37;3.07;;;;;;;;;;5004901;28;20045;-59
2021/12/24 07:38:26;;;;;;;17.15;3.50;;;;;;;;;;5009790;28;20052;-59
2021/12/24 07:40:52;;;;;;;15.50;2.97;;;;;;;;;;5006451;28;20136;-59
2021/12/24 07:43:19;;;;;;;17.50;3.22;;;;;;;;;;5008914;28;20073;-59
2021/12/24 07:45:46;;;;;;;14.18;3.22;;;;;;;;;;5004953;28;20064;-59
2021/12/24 07:48:15;;;;;;;15.02;2.95;;;;;;;;;;5008324;28;20050;-59
2021/12/24 07:53:28;;;;;;;21.25;2.97;;;;;;;;;;5009179;28;20050;-58
2021/12/24 07:55:56;;;;;;;14.98;3.22;;;;;;;;;;5004613;28;20078;-59
2021/12/24 07:58:23;;;;;;;25.60;3.83;;;;;;;;;;5008655;28;20093;-59
2021/12/24 08:00:52;;;;;;;13.63;3.85;;;;;;;;;;5009110;28;20145;-59
2021/12/24 08:03:18;;;;;;;15.02;3.45;;;;;;;;;;5023613;28;20386;-59
2021/12/24 08:05:48;;;;;;;21.48;3.95;;;;;;;;;;5028199;28;20067;-59
2021/12/24 08:08:15;;;;;;;10.50;3.03;;;;;;;;;;5007242;28;20073;-59
2021/12/24 08:10:44;;;;;;;12.45;2.65;;;;;;;;;;5009499;28;20042;-59
2021/12/24 08:13:10;;;;;;;8.68;2.88;;;;;;;;;;5006653;28;20108;-59
2021/12/24 08:15:37;;;;;;;16.90;3.00;;;;;;;;;;5010075;28;20046;-60
2021/12/24 08:18:03;;;;;;;13.35;2.72;;;;;;;;;;5005196;28;20057;-59
2021/12/24 08:20:30;;;;;;;19.65;3.55;;;;;;;;;;5008148;28;20077;-58
2021/12/24 08:22:58;;;;;;;9.32;2.55;;;;;;;;;;5004206;28;20046;-59
2021/12/24 08:25:25;;;;;;;12.83;2.50;;;;;;;;;;5008117;28;20061;-59
2021/12/24 08:27:51;;;;;;;18.58;3.63;;;;;;;;;;5010890;28;20148;-59
2021/12/24 08:30:18;;;;;;;19.38;3.80;;;;;;;;;;5027397;28;20127;-59
2021/12/24 08:32:45;;;;;;;20.17;3.83;;;;;;;;;;5018548;28;20068;-59
2021/12/24 08:35:13;;;;;;;;;;;;;;;;;;5008089;28;20104;-59
2021/12/24 08:37:40;;;;;;;11.90;2.88;;;;;;;;;;5004186;28;19929;-59
2021/12/24 08:40:09;;;;;;;14.07;3.28;;;;;;;;;;5007461;28;20046;-59
2021/12/24 08:42:38;;;;;;;16.63;3.00;;;;;;;;;;5003902;28;20089;-59
2021/12/24 08:45:05;;;;;;;7.53;3.25;;;;;;;;;;4987399;28;20068;-59
2021/12/24 08:47:31;;;;;;;11.52;3.13;;;;;;;;;;5003865;28;20095;-59
2021/12/24 08:49:58;;;;;;;16.02;3.40;;;;;;;;;;5018783;28;20108;-59
2021/12/24 08:52:25;;;;;;;18.58;3.85;;;;;;;;;;5007089;28;20046;-59
2021/12/24 08:54:51;;;;;;;12.82;2.85;;;;;;;;;;5003465;28;20108;-59
2021/12/24 08:57:22;;;;;;;17.88;3.80;;;;;;;;;;5006893;28;20054;-58
2021/12/24 08:59:49;;;;;;;19.75;3.95;;;;;;;;;;5003117;28;20049;-59
2021/12/24 09:02:16;;;;;;;9.63;3.40;;;;;;;;;;5005411;28;20084;-58
2021/12/24 09:04:42;;;;;;;11.38;3.95;;;;;;;;;;5014133;28;20100;-59
2021/12/24 09:07:10;;;;;;;22.00;4.57;;;;;;;;;;5026069;28;20173;-59
2021/12/24 09:09:37;;;;;;;14.98;3.00;;;;;;;;;;5014543;28;20046;-58
2021/12/24 09:12:04;;;;;;;17.10;3.83;;;;;;;;;;5007020;28;20081;-59
2021/12/24 09:14:32;;;;;;;13.40;3.92;;;;;;;;;;5003610;28;20046;-59
2021/12/24 09:17:00;;;;;;;11.57;3.58;;;;;;;;;;5006693;28;20060;-58
2021/12/24 09:19:28;;;;;;;12.30;3.83;;;;;;;;;;5003165;28;20042;-58
2021/12/24 09:21:57;;;;;;;19.55;4.38;;;;;;;;;;5007335;28;20060;-59
2021/12/24 09:24:24;;;;;;;15.25;4.25;;;;;;;;;;5004477;28;20049;-59
2021/12/24 09:26:54;;;;;;;22.50;5.80;;;;;;;;;;5026575;28;20049;-58
2021/12/24 09:29:21;;;;;;;18.67;4.78;;;;;;;;;;5020240;28;20061;-59
2021/12/24 09:31:51;;;;;;;19.60;5.00;;;;;;;;;;5004476;28;20054;-59
2021/12/24 09:34:17;;;;;;;25.33;5.55;;;;;;;;;;5005100;28;20081;-59
2021/12/24 09:36:44;;;;;;;29.88;4.00;;;;;;;;;;5002714;28;20053;-58
2021/12/24 09:39:11;;;;;;;24.55;5.63;;;;;;;;;;5007310;28;20034;-59
2021/12/24 09:41:38;;;;;;;14.65;4.90;;;;;;;;;;5004233;28;20061;-59
2021/12/24 09:44:05;;;;;;;12.55;3.78;;;;;;;;;;5009046;28;20060;-59
2021/12/24 09:46:32;;;;;;;15.35;3.85;;;;;;;;;;5004923;28;20141;-59
2021/12/24 09:49:00;;;;;;;17.33;4.72;;;;;;;;;;5008410;28;20061;-59
2021/12/24 09:51:28;;;;;;;18.53;4.33;;;;;;;;;;5003412;28;20046;-59
2021/12/24 09:53:56;;;;;;;19.33;4.70;;;;;;;;;;5007102;28;20038;-59
2021/12/24 09:56:22;;;;;;;15.25;4.00;;;;;;;;;;5002386;28;20057;-59
2021/12/24 09:58:49;;;;;;;18.90;3.75;;;;;;;;;;5006221;28;20141;-59
2021/12/24 10:01:31;;;;;;;19.13;4.50;;;;;;;;;;5002498;28;20068;-59
2021/12/24 10:04:03;;;;;;;22.85;4.85;;;;;;;;;;5006591;28;20115;-59
2021/12/24 10:06:30;;;;;;;17.10;4.55;;;;;;;;;;5001815;28;20108;-59
2021/12/24 10:09:00;;;;;;;23.40;4.53;;;;;;;;;;5005932;28;20057;-59
2021/12/24 10:11:30;;;;;;;14.63;4.43;;;;;;;;;;5003589;28;20049;-59
2021/12/24 10:14:03;;;;;;;28.83;4.95;;;;;;;;;;5014231;28;20053;-59
2021/12/24 10:16:30;;;;;;;29.10;4.50;;;;;;;;;;5002476;28;20156;-59
2021/12/24 10:18:59;;;;;;;9.57;3.67;;;;;;;;;;5006095;28;20149;-59
2021/12/24 10:21:29;;;;;;;19.40;3.53;;;;;;;;;;5002695;28;20085;-59
2021/12/24 10:23:57;;;;;;;8.73;3.03;;;;;;;;;;4989567;28;20062;-59
2021/12/24 10:26:25;;;;;;;18.65;4.35;;;;;;;;;;4990263;28;20054;-59
2021/12/24 10:28:52;;;;;;;18.63;4.72;;;;;;;;;;5005065;28;20057;-59
2021/12/24 10:31:22;;;;;;;25.90;4.25;;;;;;;;;;5009776;28;20084;-59
2021/12/24 10:34:11;;;;;;;16.25;4.18;;;;;;;;;;5006835;28;20065;-59
2021/12/24 10:36:57;;;;;;;20.52;4.10;;;;;;;;;;5009616;28;20050;-59
2021/12/24 10:39:25;;;;;;;13.95;4.25;;;;;;;;;;5008214;28;20108;-59
2021/12/24 10:41:53;;;;;;;24.23;4.22;;;;;;;;;;5011079;28;20061;-59
2021/12/24 10:44:20;;;;;;;24.88;4.85;;;;;;;;;;5006289;28;20042;-59
2021/12/24 10:47:03;;;;;;;14.48;3.47;;;;;;;;;;5009753;28;20060;-59
2021/12/24 10:55:08;;;;;;;31.27;3.97;;;;;;;;;;4991003;28;20080;-58
2021/12/24 10:57:35;;;;;;;16.25;4.03;;;;;;;;;;5009264;28;20104;-59
2021/12/24 11:00:04;;;;;;;23.83;4.20;;;;;;;;;;5006133;28;20045;-59
2021/12/24 11:02:33;;;;;;;12.90;3.72;;;;;;;;;;5010090;28;20085;-58
2021/12/24 11:04:59;;;;;;;19.95;4.13;;;;;;;;;;5021152;28;20080;-58
2021/12/24 11:07:37;;;;;;;18.58;4.15;;;;;;;;;;5029149;28;20057;-59
2021/12/24 11:10:12;;;;;;;13.93;3.63;;;;;;;;;;5011209;28;20140;-58
2021/12/24 11:12:40;;;;;;;20.40;3.38;;;;;;;;;;5009752;28;20049;-59
2021/12/24 11:15:21;;;;;;;20.33;3.58;;;;;;;;;;5006766;28;20141;-59
2021/12/24 11:17:48;;;;;;;27.02;3.45;;;;;;;;;;5011219;28;20054;-58
2021/12/24 11:20:15;;;;;;;16.42;3.65;;;;;;;;;;5007568;28;20074;-58
2021/12/24 11:22:54;;;;;;;9.90;3.40;;;;;;;;;;5010439;28;20076;-58
2021/12/24 11:25:21;;;;;;;10.98;3.05;;;;;;;;;;5005427;28;20058;-58
2021/12/24 11:27:48;;;;;;;14.18;3.78;;;;;;;;;;5008889;28;20144;-58
2021/12/24 11:30:14;;;;;;;19.67;3.53;;;;;;;;;;5014991;28;20156;-58
2021/12/24 11:32:41;;;;;;;17.30;3.97;;;;;;;;;;5029362;28;20079;-58
2021/12/24 11:35:08;;;;;;;21.35;3.30;;;;;;;;;;5016269;28;20152;-58
2021/12/24 11:37:34;;;;;;;11.82;3.25;;;;;;;;;;5007556;28;20057;-58
2021/12/24 11:40:05;;;;;;;19.60;3.03;;;;;;;;;;5004342;28;20049;-58
2021/12/24 11:42:38;;;;;;;13.80;2.40;;;;;;;;;;5008380;28;20085;-58
2021/12/24 11:45:05;;;;;;;22.90;3.70;;;;;;;;;;5004570;28;20050;-58
2021/12/24 11:47:32;;;;;;;12.40;2.97;;;;;;;;;;5008512;28;20065;-58
2021/12/24 11:49:59;;;;;;;17.90;3.47;;;;;;;;;;5004582;28;20062;-59
2021/12/24 11:52:27;;;;;;;15.75;2.60;;;;;;;;;;5008332;28;20078;-58
2021/12/24 11:54:54;;;;;;;13.00;3.55;;;;;;;;;;5007826;28;20063;-59
2021/12/24 11:57:23;;;;;;;9.73;2.53;;;;;;;;;;5004462;28;20159;-58
2021/12/24 11:59:49;;;;;;;21.08;2.97;;;;;;;;;;5007999;28;20066;-58
2021/12/24 12:02:31;;;;;;;14.52;3.03;;;;;;;;;;5004390;28;20058;-59
2021/12/24 12:05:10;;;;;;;19.98;2.53;;;;;;;;;;5007789;28;20132;-58
2021/12/24 12:07:37;;;;;;;16.38;3.47;;;;;;;;;;5004153;28;20069;-58
2021/12/24 12:10:04;;;;;;;14.32;2.72;;;;;;;;;;5008103;28;20069;-60
2021/12/24 12:12:34;;;;;;;16.27;2.97;;;;;;;;;;5004043;28;20592;-58
2021/12/24 12:15:15;;;;;;;23.75;3.53;;;;;;;;;;5008236;28;20084;-58
2021/12/24 12:17:50;;;;;;;10.02;2.30;;;;;;;;;;5002814;28;20054;-58
2021/12/24 12:20:35;;;;;;;13.32;3.17;;;;;;;;;;5007886;28;20139;-59
2021/12/24 12:23:02;;;;;;;13.60;3.00;;;;;;;;;;5019680;28;20084;-58
2021/12/24 12:25:33;;;;;;;16.50;2.67;;;;;;;;;;5027708;28;20131;-58
2021/12/24 12:28:02;;;;;;;15.65;3.67;;;;;;;;;;5008855;28;20050;-58
2021/12/24 12:30:28;;;;;;;;;;;;;;;;;;5008053;28;20060;-58
2021/12/24 12:33:04;;;;;;;16.98;3.65;;;;;;;;;;5004329;28;19976;-58
2021/12/24 12:35:35;;;;;;;20.42;3.47;;;;;;;;;;5007590;28;20064;-58
2021/12/24 12:38:01;;;;;;;18.50;2.95;;;;;;;;;;4990730;28;20101;-58
2021/12/24 12:40:29;;;;;;;18.20;3.53;;;;;;;;;;5007129;28;20049;-58
2021/12/24 12:43:10;;;;;;;11.57;3.20;;;;;;;;;;5004704;28;20046;-59
2021/12/24 12:45:55;;;;;;;11.45;3.92;;;;;;;;;;5005491;28;20066;-58
2021/12/24 12:48:25;;;;;;;28.17;4.70;;;;;;;;;;5003646;28;20057;-58
2021/12/24 12:50:55;;;;;;;21.38;3.92;;;;;;;;;;5010687;28;20065;-59
2021/12/24 12:53:26;;;;;;;10.73;3.60;;;;;;;;;;5005211;28;20066;-58
2021/12/24 12:56:07;;;;;;;21.02;3.90;;;;;;;;;;5007841;28;20053;-58
2021/12/24 12:58:34;;;;;;;15.95;4.53;;;;;;;;;;5003541;28;20049;-58
2021/12/24 13:01:06;;;;;;;22.63;4.13;;;;;;;;;;5007024;28;20086;-58
2021/12/24 13:03:33;;;;;;;16.58;3.92;;;;;;;;;;5003669;28;20139;-58
2021/12/24 13:06:08;;;;;;;24.20;4.20;;;;;;;;;;5000523;28;20050;-59
2021/12/24 13:08:38;;;;;;;22.92;6.82;;;;;;;;;;5003001;28;20086;-58
2021/12/24 13:11:06;;;;;;;22.80;5.43;;;;;;;;;;5007109;28;20103;-59
2021/12/24 13:13:33;;;;;;;21.60;4.88;;;;;;;;;;5002601;28;20057;-58
2021/12/24 13:16:00;;;;;;;10.30;4.10;;;;;;;;;;5007160;28;20173;-59
2021/12/24 13:18:31;;;;;;;18.17;3.97;;;;;;;;;;5002762;28;20050;-58
2021/12/24 13:23:43;;;;;;;18.25;4.45;;;;;;;;;;5003729;28;20046;-59
2021/12/24 13:26:15;;;;;;;21.98;5.00;;;;;;;;;;5007054;28;20487;-59
2021/12/24 13:28:53;;;;;;;20.85;4.95;;;;;;;;;;5003975;28;20058;-58
2021/12/24 13:31:22;;;;;;;16.77;3.78;;;;;;;;;;4965897;28;20051;-59
2021/12/24 13:33:49;;;;;;;16.35;4.75;;;;;;;;;;4973810;28;20104;-59
2021/12/24 13:36:21;;;;;;;17.37;4.17;;;;;;;;;;5000240;28;20105;-59
2021/12/24 13:38:47;;;;;;;11.38;4.18;;;;;;;;;;4969529;28;20086;-59
2021/12/24 13:41:14;;;;;;;16.55;3.85;;;;;;;;;;4987305;28;20049;-59
2021/12/24 13:43:40;;;;;;;16.05;4.30;;;;;;;;;;5006791;28;20125;-59
2021/12/24 13:46:08;;;;;;;21.00;4.20;;;;;;;;;;5002891;28;20089;-59
2021/12/24 13:48:47;;;;;;;12.35;4.13;;;;;;;;;;5006534;28;20060;-59
2021/12/24 13:56:45;;;;;;;22.35;4.78;;;;;;;;;;4994112;28;20054;-59
2021/12/24 13:59:13;;;;;;;22.30;6.93;;;;;;;;;;5004970;28;20116;-60
2021/12/24 14:01:41;;;;;;;12.87;4.40;;;;;;;;;;5002235;28;20061;-59
2021/12/24 14:04:08;;;;;;;16.27;4.03;;;;;;;;;;5006136;28;20086;-60
2021/12/24 14:06:36;;;;;;;14.25;4.30;;;;;;;;;;5001967;28;20049;-59
2021/12/24 14:09:11;;;;;;;22.98;6.35;;;;;;;;;;5005520;28;20136;-59
2021/12/24 14:11:38;;;;;;;23.83;6.05;;;;;;;;;;5002622;28;20115;-60
2021/12/24 14:14:09;;;;;;;24.10;5.55;;;;;;;;;;5005860;28;20057;-60
2021/12/24 14:16:43;;;;;;;15.73;4.68;;;;;;;;;;5002530;28;20058;-59
2021/12/24 14:19:14;;;;;;;16.40;4.95;;;;;;;;;;5006405;28;20064;-59
2021/12/24 14:21:45;;;;;;;20.10;5.47;;;;;;;;;;5004505;28;20105;-59
2021/12/24 14:24:13;;;;;;;21.02;5.78;;;;;;;;;;5008028;28;20060;-60
2021/12/24 14:26:41;;;;;;;27.27;4.28;;;;;;;;;;5003240;28;20156;-60
2021/12/24 14:29:07;;;;;;;15.00;4.72;;;;;;;;;;5005628;28;20085;-59
2021/12/24 14:31:51;;;;;;;21.67;4.38;;;;;;;;;;5000813;28;20113;-59
2021/12/24 14:34:30;;;;;;;15.68;4.28;;;;;;;;;;5005034;28;20089;-59
2021/12/24 14:36:59;;;;;;;19.15;5.22;;;;;;;;;;5002661;28;20116;-59
2021/12/24 14:39:26;;;;;;;23.17;5.00;;;;;;;;;;5005826;28;20145;-59
2021/12/24 14:42:08;;;;;;;16.98;4.70;;;;;;;;;;5003517;28;20049;-60
2021/12/24 14:44:34;;;;;;;13.77;4.47;;;;;;;;;;5002052;28;20061;-59
2021/12/24 14:47:01;;;;;;;20.02;4.35;;;;;;;;;;5000691;28;22941;-59
2021/12/24 14:49:31;;;;;;;23.90;4.18;;;;;;;;;;5004377;28;20065;-59
2021/12/24 14:52:13;;;;;;;8.60;3.58;;;;;;;;;;5001420;28;20259;-59
2021/12/24 14:54:54;;;;;;;17.52;4.47;;;;;;;;;;5004405;28;20058;-60
2021/12/24 14:57:24;;;;;;;17.55;4.05;;;;;;;;;;4999729;28;20062;-59
2021/12/24 14:59:51;;;;;;;18.02;4.22;;;;;;;;;;5004450;28;20058;-60
2021/12/24 15:02:19;;;;;;;16.92;4.20;;;;;;;;;;5004033;28;20060;-59
2021/12/24 15:04:54;;;;;;;14.10;4.05;;;;;;;;;;5020068;28;20045;-59
2021/12/24 15:07:29;;;;;;;17.35;4.63;;;;;;;;;;5004310;28;20072;-60
2021/12/24 15:10:07;;;;;;;12.57;4.82;;;;;;;;;;5004895;28;20058;-59
2021/12/24 15:12:42;;;;;;;14.18;4.25;;;;;;;;;;5008614;28;20507;-59
2021/12/24 15:15:10;;;;;;;15.73;3.65;;;;;;;;;;5006525;28;20108;-59
2021/12/24 15:17:39;;;;;;;12.50;3.55;;;;;;;;;;5008660;28;20101;-60
2021/12/24 15:20:06;;;;;;;19.00;5.55;;;;;;;;;;5005761;28;20169;-60
2021/12/24 15:22:33;;;;;;;13.90;4.38;;;;;;;;;;5009766;28;20061;-59
2021/12/24 15:25:00;;;;;;;10.65;3.90;;;;;;;;;;5004846;28;20053;-60
2021/12/24 15:27:32;;;;;;;7.32;3.03;;;;;;;;;;5008088;28;20053;-59
2021/12/24 15:30:00;;;;;;;11.23;2.60;;;;;;;;;;5003968;28;20054;-59
2021/12/24 15:32:28;;;;;;;5.03;2.38;;;;;;;;;;5008335;28;20057;-60
2021/12/24 15:34:55;;;;;;;7.03;2.10;;;;;;;;;;5003781;28;20149;-59
2021/12/24 15:37:21;;;;;;;4.50;2.30;;;;;;;;;;5007954;28;20324;-60
2021/12/24 15:39:48;;;;;;;4.40;2.00;;;;;;;;;;5004490;28;20140;-60
2021/12/24 15:42:16;;;;;;;7.18;3.08;;;;;;;;;;5008287;28;20065;-60
2021/12/24 15:44:46;;;;;;;5.30;2.35;;;;;;;;;;5005071;28;20091;-59
2021/12/24 15:47:14;;;;;;;2.58;1.48;;;;;;;;;;5004338;28;20085;-59
2021/12/24 15:49:41;;;;;;;9.77;2.88;;;;;;;;;;5004849;28;20072;-60
2021/12/24 15:52:08;;;;;;;4.38;1.83;;;;;;;;;;5008900;28;20070;-60
2021/12/24 15:54:35;;;;;;;6.05;2.00;;;;;;;;;;5006828;28;20148;-59
2021/12/24 15:57:03;;;;;;;8.18;1.60;;;;;;;;;;5011159;28;20053;-59
2021/12/24 15:59:31;;;;;;;2.78;1.52;;;;;;;;;;5007795;28;20081;-60
2021/12/24 16:01:58;;;;;;;6.35;2.53;;;;;;;;;;5006965;28;20053;-60
2021/12/24 16:04:26;;;;;;;3.80;1.63;;;;;;;;;;5007693;28;20057;-60
2021/12/24 16:06:52;;;;;;;5.47;1.57;;;;;;;;;;5003446;28;20049;-60
2021/12/24 16:09:20;;;;;;;2.65;1.40;;;;;;;;;;5009068;28;20304;-59
2021/12/24 16:11:48;;;;;;;6.03;2.28;;;;;;;;;;5003995;28;20054;-59
2021/12/24 16:14:16;;;;;;;4.07;1.80;;;;;;;;;;5007799;28;20057;-60
2021/12/24 16:16:44;;;;;;;6.82;2.15;;;;;;;;;;5003563;28;20053;-60
2021/12/24 16:19:11;;;;;;;4.38;2.17;;;;;;;;;;5008023;28;20172;-60